sensor_id;sensor_type;location;lat;lon;timestamp;P1;durP1;ratioP1;P2;durP2;ratioP2
14858;SDS011;7521;51.700;6.874;2023-12-28T00:01:46;9.00;;;3.87;;
14858;SDS011;7521;51.700;6.874;2023-12-28T00:04:51;6.43;;;3.00;;
14858;SDS011;7521;51.700;6.874;2023-12-28T00:07:57;7.40;;;3.40;;
14858;SDS011;7521;51.700;6.874;2023-12-28T00:11:02;4.43;;;3.13;;
14858;SDS011;7521;51.700;6.874;2023-12-28T00:14:08;7.20;;;3.13;;
14858;SDS011;7521;51.700;6.874;2023-12-28T00:17:13;6.07;;;3.33;;
14858;SDS011;7521;51.700;6.874;2023-12-28T00:20:19;5.33;;;2.53;;
14858;SDS011;7521;51.700;6.874;2023-12-28T00:23:24;6.63;;;2.53;;
14858;SDS011;7521;51.700;6.874;2023-12-28T00:26:29;4.53;;;1.90;;
14858;SDS011;7521;51.700;6.874;2023-12-28T00:29:34;4.75;;;2.22;;
14858;SDS011;7521;51.700;6.874;2023-12-28T00:32:43;3.40;;;1.80;;
14858;SDS011;7521;51.700;6.874;2023-12-28T00:35:49;2.00;;;1.57;;
14858;SDS011;7521;51.700;6.874;2023-12-28T00:38:54;3.17;;;1.42;;
14858;SDS011;7521;51.700;6.874;2023-12-28T00:41:59;3.07;;;1.47;;
14858;SDS011;7521;51.700;6.874;2023-12-28T00:45:05;4.03;;;1.87;;
14858;SDS011;7521;51.700;6.874;2023-12-28T00:48:10;4.40;;;1.53;;
14858;SDS011;7521;51.700;6.874;2023-12-28T00:51:15;3.13;;;1.83;;
14858;SDS011;7521;51.700;6.874;2023-12-28T00:54:20;3.13;;;2.10;;
14858;SDS011;7521;51.700;6.874;2023-12-28T00:57:25;2.17;;;1.53;;
14858;SDS011;7521;51.700;6.874;2023-12-28T01:00:31;4.28;;;2.00;;
14858;SDS011;7521;51.700;6.874;2023-12-28T01:03:36;3.03;;;1.83;;
14858;SDS011;7521;51.700;6.874;2023-12-28T01:06:41;4.10;;;1.80;;
14858;SDS011;7521;51.700;6.874;2023-12-28T01:09:46;3.15;;;1.90;;
14858;SDS011;7521;51.700;6.874;2023-12-28T01:12:51;3.67;;;1.70;;
14858;SDS011;7521;51.700;6.874;2023-12-28T01:15:56;2.70;;;1.55;;
14858;SDS011;7521;51.700;6.874;2023-12-28T01:19:02;4.40;;;2.07;;
14858;SDS011;7521;51.700;6.874;2023-12-28T01:22:07;3.25;;;2.22;;
14858;SDS011;7521;51.700;6.874;2023-12-28T01:25:12;4.03;;;1.67;;
14858;SDS011;7521;51.700;6.874;2023-12-28T01:28:17;5.27;;;1.93;;
14858;SDS011;7521;51.700;6.874;2023-12-28T01:31:23;2.27;;;1.80;;
14858;SDS011;7521;51.700;6.874;2023-12-28T01:34:28;4.85;;;1.77;;
14858;SDS011;7521;51.700;6.874;2023-12-28T01:37:33;2.97;;;1.45;;
14858;SDS011;7521;51.700;6.874;2023-12-28T01:40:43;3.07;;;2.00;;
14858;SDS011;7521;51.700;6.874;2023-12-28T01:43:48;4.70;;;2.17;;
14858;SDS011;7521;51.700;6.874;2023-12-28T01:46:53;3.10;;;1.60;;
14858;SDS011;7521;51.700;6.874;2023-12-28T01:49:58;2.63;;;1.77;;
14858;SDS011;7521;51.700;6.874;2023-12-28T01:53:04;3.57;;;2.10;;
14858;SDS011;7521;51.700;6.874;2023-12-28T01:56:10;3.00;;;1.63;;
14858;SDS011;7521;51.700;6.874;2023-12-28T01:59:15;3.37;;;2.10;;
14858;SDS011;7521;51.700;6.874;2023-12-28T02:02:21;3.17;;;2.10;;
14858;SDS011;7521;51.700;6.874;2023-12-28T02:05:26;3.47;;;1.60;;
14858;SDS011;7521;51.700;6.874;2023-12-28T02:08:31;3.97;;;2.03;;
14858;SDS011;7521;51.700;6.874;2023-12-28T02:11:37;3.27;;;2.00;;
14858;SDS011;7521;51.700;6.874;2023-12-28T02:14:42;3.05;;;1.80;;
14858;SDS011;7521;51.700;6.874;2023-12-28T02:17:48;5.80;;;2.17;;
14858;SDS011;7521;51.700;6.874;2023-12-28T02:20:57;5.97;;;1.97;;
14858;SDS011;7521;51.700;6.874;2023-12-28T02:24:03;5.13;;;2.17;;
14858;SDS011;7521;51.700;6.874;2023-12-28T02:27:08;4.00;;;1.97;;
14858;SDS011;7521;51.700;6.874;2023-12-28T02:30:14;4.88;;;1.90;;
14858;SDS011;7521;51.700;6.874;2023-12-28T02:36:28;6.23;;;2.10;;
14858;SDS011;7521;51.700;6.874;2023-12-28T02:39:33;3.20;;;2.00;;
14858;SDS011;7521;51.700;6.874;2023-12-28T02:42:39;3.40;;;2.17;;
14858;SDS011;7521;51.700;6.874;2023-12-28T02:45:44;3.78;;;2.10;;
14858;SDS011;7521;51.700;6.874;2023-12-28T02:48:49;4.63;;;2.10;;
14858;SDS011;7521;51.700;6.874;2023-12-28T02:51:55;4.47;;;1.83;;
14858;SDS011;7521;51.700;6.874;2023-12-28T02:55:00;3.40;;;1.93;;
14858;SDS011;7521;51.700;6.874;2023-12-28T02:58:05;4.33;;;2.10;;
14858;SDS011;7521;51.700;6.874;2023-12-28T03:01:10;4.10;;;2.00;;
14858;SDS011;7521;51.700;6.874;2023-12-28T03:04:16;5.80;;;2.60;;
14858;SDS011;7521;51.700;6.874;2023-12-28T03:07:21;4.95;;;2.00;;
14858;SDS011;7521;51.700;6.874;2023-12-28T03:10:26;3.88;;;2.25;;
14858;SDS011;7521;51.700;6.874;2023-12-28T03:13:31;5.18;;;2.05;;
14858;SDS011;7521;51.700;6.874;2023-12-28T03:16:37;4.63;;;2.27;;
14858;SDS011;7521;51.700;6.874;2023-12-28T03:19:42;6.18;;;2.17;;
14858;SDS011;7521;51.700;6.874;2023-12-28T03:22:47;8.57;;;2.60;;
14858;SDS011;7521;51.700;6.874;2023-12-28T03:25:52;8.10;;;2.75;;
14858;SDS011;7521;51.700;6.874;2023-12-28T03:28:57;4.93;;;2.38;;
14858;SDS011;7521;51.700;6.874;2023-12-28T03:32:03;4.45;;;2.20;;
14858;SDS011;7521;51.700;6.874;2023-12-28T03:35:08;6.17;;;2.33;;
14858;SDS011;7521;51.700;6.874;2023-12-28T03:38:13;3.37;;;2.20;;
14858;SDS011;7521;51.700;6.874;2023-12-28T03:41:19;4.60;;;2.42;;
14858;SDS011;7521;51.700;6.874;2023-12-28T03:44:24;5.57;;;2.37;;
14858;SDS011;7521;51.700;6.874;2023-12-28T03:47:29;5.80;;;2.30;;
14858;SDS011;7521;51.700;6.874;2023-12-28T03:50:34;7.88;;;2.30;;
14858;SDS011;7521;51.700;6.874;2023-12-28T03:53:40;4.27;;;2.20;;
14858;SDS011;7521;51.700;6.874;2023-12-28T03:56:45;4.05;;;2.50;;
14858;SDS011;7521;51.700;6.874;2023-12-28T03:59:50;6.40;;;2.03;;
14858;SDS011;7521;51.700;6.874;2023-12-28T04:02:56;4.55;;;2.05;;
14858;SDS011;7521;51.700;6.874;2023-12-28T04:06:03;6.27;;;2.83;;
14858;SDS011;7521;51.700;6.874;2023-12-28T04:09:10;6.73;;;2.63;;
14858;SDS011;7521;51.700;6.874;2023-12-28T04:12:15;6.17;;;2.10;;
14858;SDS011;7521;51.700;6.874;2023-12-28T04:15:21;3.83;;;2.25;;
14858;SDS011;7521;51.700;6.874;2023-12-28T04:18:26;4.13;;;2.10;;
14858;SDS011;7521;51.700;6.874;2023-12-28T04:21:31;5.90;;;2.57;;
14858;SDS011;7521;51.700;6.874;2023-12-28T04:24:36;5.70;;;2.45;;
14858;SDS011;7521;51.700;6.874;2023-12-28T04:27:42;4.25;;;2.70;;
14858;SDS011;7521;51.700;6.874;2023-12-28T04:30:47;7.10;;;2.37;;
14858;SDS011;7521;51.700;6.874;2023-12-28T04:33:52;5.50;;;2.10;;
14858;SDS011;7521;51.700;6.874;2023-12-28T04:36:57;6.63;;;2.45;;
14858;SDS011;7521;51.700;6.874;2023-12-28T04:40:02;5.00;;;1.73;;
14858;SDS011;7521;51.700;6.874;2023-12-28T04:43:08;6.70;;;2.53;;
14858;SDS011;7521;51.700;6.874;2023-12-28T04:46:14;6.20;;;2.10;;
14858;SDS011;7521;51.700;6.874;2023-12-28T04:49:19;5.65;;;2.15;;
14858;SDS011;7521;51.700;6.874;2023-12-28T04:52:24;4.87;;;2.60;;
14858;SDS011;7521;51.700;6.874;2023-12-28T04:55:29;3.88;;;2.25;;
14858;SDS011;7521;51.700;6.874;2023-12-28T04:58:34;7.53;;;2.50;;
14858;SDS011;7521;51.700;6.874;2023-12-28T05:01:40;7.28;;;2.00;;
14858;SDS011;7521;51.700;6.874;2023-12-28T05:04:45;5.27;;;2.37;;
14858;SDS011;7521;51.700;6.874;2023-12-28T05:07:50;4.25;;;2.00;;
14858;SDS011;7521;51.700;6.874;2023-12-28T05:10:56;4.90;;;1.97;;
14858;SDS011;7521;51.700;6.874;2023-12-28T05:14:01;5.88;;;2.25;;
14858;SDS011;7521;51.700;6.874;2023-12-28T05:17:06;4.32;;;2.10;;
14858;SDS011;7521;51.700;6.874;2023-12-28T05:20:11;4.18;;;2.35;;
14858;SDS011;7521;51.700;6.874;2023-12-28T05:23:16;10.97;;;2.83;;
14858;SDS011;7521;51.700;6.874;2023-12-28T05:26:22;6.40;;;2.27;;
14858;SDS011;7521;51.700;6.874;2023-12-28T05:29:28;4.07;;;2.00;;
14858;SDS011;7521;51.700;6.874;2023-12-28T05:32:33;5.88;;;2.70;;
14858;SDS011;7521;51.700;6.874;2023-12-28T05:35:38;3.55;;;1.73;;
14858;SDS011;7521;51.700;6.874;2023-12-28T05:38:43;5.10;;;2.20;;
14858;SDS011;7521;51.700;6.874;2023-12-28T05:41:48;4.23;;;1.97;;
14858;SDS011;7521;51.700;6.874;2023-12-28T05:44:55;5.23;;;1.80;;
14858;SDS011;7521;51.700;6.874;2023-12-28T05:48:00;9.90;;;2.42;;
14858;SDS011;7521;51.700;6.874;2023-12-28T05:51:05;6.03;;;2.17;;
14858;SDS011;7521;51.700;6.874;2023-12-28T05:54:11;6.28;;;2.63;;
14858;SDS011;7521;51.700;6.874;2023-12-28T05:57:16;6.57;;;2.00;;
14858;SDS011;7521;51.700;6.874;2023-12-28T06:00:21;3.57;;;1.83;;
14858;SDS011;7521;51.700;6.874;2023-12-28T06:03:26;8.07;;;2.40;;
14858;SDS011;7521;51.700;6.874;2023-12-28T06:06:33;5.53;;;2.10;;
14858;SDS011;7521;51.700;6.874;2023-12-28T06:09:39;6.83;;;2.00;;
14858;SDS011;7521;51.700;6.874;2023-12-28T06:12:44;4.63;;;1.97;;
14858;SDS011;7521;51.700;6.874;2023-12-28T06:15:49;5.82;;;1.98;;
14858;SDS011;7521;51.700;6.874;2023-12-28T06:18:54;5.93;;;2.33;;
14858;SDS011;7521;51.700;6.874;2023-12-28T06:21:59;9.85;;;2.20;;
14858;SDS011;7521;51.700;6.874;2023-12-28T06:25:05;6.60;;;2.23;;
14858;SDS011;7521;51.700;6.874;2023-12-28T06:28:11;5.70;;;1.90;;
14858;SDS011;7521;51.700;6.874;2023-12-28T06:31:16;6.13;;;1.60;;
14858;SDS011;7521;51.700;6.874;2023-12-28T06:34:21;5.25;;;1.75;;
14858;SDS011;7521;51.700;6.874;2023-12-28T06:37:26;7.95;;;1.80;;
14858;SDS011;7521;51.700;6.874;2023-12-28T06:40:31;7.93;;;2.28;;
14858;SDS011;7521;51.700;6.874;2023-12-28T06:43:37;5.43;;;2.00;;
14858;SDS011;7521;51.700;6.874;2023-12-28T06:46:42;11.75;;;2.35;;
14858;SDS011;7521;51.700;6.874;2023-12-28T06:49:47;10.95;;;2.38;;
14858;SDS011;7521;51.700;6.874;2023-12-28T06:52:52;5.07;;;1.75;;
14858;SDS011;7521;51.700;6.874;2023-12-28T06:55:58;6.60;;;1.80;;
14858;SDS011;7521;51.700;6.874;2023-12-28T06:59:03;9.73;;;2.27;;
14858;SDS011;7521;51.700;6.874;2023-12-28T07:02:08;5.33;;;1.60;;
14858;SDS011;7521;51.700;6.874;2023-12-28T07:05:13;6.43;;;1.75;;
14858;SDS011;7521;51.700;6.874;2023-12-28T07:08:18;6.53;;;1.57;;
14858;SDS011;7521;51.700;6.874;2023-12-28T07:11:24;8.82;;;2.08;;
14858;SDS011;7521;51.700;6.874;2023-12-28T07:14:29;9.85;;;2.00;;
14858;SDS011;7521;51.700;6.874;2023-12-28T07:17:34;7.45;;;1.85;;
14858;SDS011;7521;51.700;6.874;2023-12-28T07:20:39;7.55;;;2.28;;
14858;SDS011;7521;51.700;6.874;2023-12-28T07:23:45;9.37;;;1.97;;
14858;SDS011;7521;51.700;6.874;2023-12-28T07:26:54;11.73;;;2.20;;
14858;SDS011;7521;51.700;6.874;2023-12-28T07:29:59;7.53;;;1.95;;
14858;SDS011;7521;51.700;6.874;2023-12-28T07:33:04;9.63;;;2.40;;
14858;SDS011;7521;51.700;6.874;2023-12-28T07:36:09;8.73;;;2.30;;
14858;SDS011;7521;51.700;6.874;2023-12-28T07:39:15;12.20;;;2.35;;
14858;SDS011;7521;51.700;6.874;2023-12-28T07:42:20;10.40;;;2.38;;
14858;SDS011;7521;51.700;6.874;2023-12-28T07:45:25;8.03;;;1.93;;
14858;SDS011;7521;51.700;6.874;2023-12-28T07:48:30;6.18;;;1.65;;
14858;SDS011;7521;51.700;6.874;2023-12-28T07:51:35;10.30;;;1.90;;
14858;SDS011;7521;51.700;6.874;2023-12-28T07:54:40;9.35;;;2.17;;
14858;SDS011;7521;51.700;6.874;2023-12-28T07:57:46;9.82;;;2.38;;
14858;SDS011;7521;51.700;6.874;2023-12-28T08:00:51;11.95;;;2.58;;
14858;SDS011;7521;51.700;6.874;2023-12-28T08:03:56;8.80;;;2.50;;
14858;SDS011;7521;51.700;6.874;2023-12-28T08:07:02;14.52;;;2.10;;
14858;SDS011;7521;51.700;6.874;2023-12-28T08:10:07;8.65;;;1.90;;
14858;SDS011;7521;51.700;6.874;2023-12-28T08:13:12;9.80;;;2.37;;
14858;SDS011;7521;51.700;6.874;2023-12-28T08:16:17;8.25;;;2.38;;
14858;SDS011;7521;51.700;6.874;2023-12-28T08:19:22;8.82;;;1.98;;
14858;SDS011;7521;51.700;6.874;2023-12-28T08:22:28;8.77;;;2.70;;
14858;SDS011;7521;51.700;6.874;2023-12-28T08:25:33;12.27;;;2.20;;
14858;SDS011;7521;51.700;6.874;2023-12-28T08:28:38;9.95;;;2.22;;
14858;SDS011;7521;51.700;6.874;2023-12-28T08:31:43;16.80;;;2.80;;
14858;SDS011;7521;51.700;6.874;2023-12-28T08:34:49;16.17;;;2.97;;
14858;SDS011;7521;51.700;6.874;2023-12-28T08:37:55;8.10;;;2.20;;
14858;SDS011;7521;51.700;6.874;2023-12-28T08:41:00;14.05;;;3.15;;
14858;SDS011;7521;51.700;6.874;2023-12-28T08:44:08;14.17;;;2.43;;
14858;SDS011;7521;51.700;6.874;2023-12-28T08:47:13;12.63;;;2.88;;
14858;SDS011;7521;51.700;6.874;2023-12-28T08:50:18;10.50;;;2.40;;
14858;SDS011;7521;51.700;6.874;2023-12-28T08:53:23;10.82;;;2.40;;
14858;SDS011;7521;51.700;6.874;2023-12-28T08:56:28;12.35;;;2.72;;
14858;SDS011;7521;51.700;6.874;2023-12-28T08:59:35;11.70;;;2.63;;
14858;SDS011;7521;51.700;6.874;2023-12-28T09:02:41;13.13;;;2.33;;
14858;SDS011;7521;51.700;6.874;2023-12-28T09:05:46;9.80;;;1.97;;
14858;SDS011;7521;51.700;6.874;2023-12-28T09:08:51;8.17;;;2.40;;
14858;SDS011;7521;51.700;6.874;2023-12-28T09:11:57;15.67;;;2.53;;
14858;SDS011;7521;51.700;6.874;2023-12-28T09:15:03;11.45;;;2.22;;
14858;SDS011;7521;51.700;6.874;2023-12-28T09:18:08;12.43;;;2.73;;
14858;SDS011;7521;51.700;6.874;2023-12-28T09:21:13;9.43;;;2.40;;
14858;SDS011;7521;51.700;6.874;2023-12-28T09:24:18;14.63;;;2.70;;
14858;SDS011;7521;51.700;6.874;2023-12-28T09:27:23;11.65;;;2.75;;
14858;SDS011;7521;51.700;6.874;2023-12-28T09:30:29;8.33;;;2.07;;
14858;SDS011;7521;51.700;6.874;2023-12-28T09:33:34;13.05;;;2.72;;
14858;SDS011;7521;51.700;6.874;2023-12-28T09:36:39;17.77;;;3.27;;
14858;SDS011;7521;51.700;6.874;2023-12-28T09:39:44;15.60;;;2.55;;
14858;SDS011;7521;51.700;6.874;2023-12-28T09:46:13;8.77;;;2.53;;
14858;SDS011;7521;51.700;6.874;2023-12-28T09:49:19;10.47;;;2.77;;
14858;SDS011;7521;51.700;6.874;2023-12-28T09:52:26;16.43;;;2.93;;
14858;SDS011;7521;51.700;6.874;2023-12-28T09:55:31;11.02;;;2.75;;
14858;SDS011;7521;51.700;6.874;2023-12-28T09:58:36;16.90;;;3.07;;
14858;SDS011;7521;51.700;6.874;2023-12-28T10:01:41;17.73;;;3.23;;
14858;SDS011;7521;51.700;6.874;2023-12-28T10:04:47;18.23;;;3.63;;
14858;SDS011;7521;51.700;6.874;2023-12-28T10:07:52;13.60;;;2.60;;
14858;SDS011;7521;51.700;6.874;2023-12-28T10:11:00;13.60;;;3.50;;
14858;SDS011;7521;51.700;6.874;2023-12-28T10:14:06;11.97;;;2.60;;
14858;SDS011;7521;51.700;6.874;2023-12-28T10:17:12;9.17;;;3.20;;
14858;SDS011;7521;51.700;6.874;2023-12-28T10:20:17;12.63;;;2.97;;
14858;SDS011;7521;51.700;6.874;2023-12-28T10:23:22;14.70;;;2.67;;
14858;SDS011;7521;51.700;6.874;2023-12-28T10:26:28;11.73;;;2.50;;
14858;SDS011;7521;51.700;6.874;2023-12-28T10:29:33;11.57;;;2.83;;
14858;SDS011;7521;51.700;6.874;2023-12-28T10:32:41;16.90;;;2.60;;
14858;SDS011;7521;51.700;6.874;2023-12-28T10:35:46;13.60;;;2.60;;
14858;SDS011;7521;51.700;6.874;2023-12-28T10:38:53;13.70;;;2.67;;
14858;SDS011;7521;51.700;6.874;2023-12-28T10:41:58;17.23;;;3.00;;
14858;SDS011;7521;51.700;6.874;2023-12-28T10:45:05;11.10;;;2.70;;
14858;SDS011;7521;51.700;6.874;2023-12-28T10:48:11;17.07;;;2.90;;
14858;SDS011;7521;51.700;6.874;2023-12-28T10:51:16;15.13;;;2.73;;
14858;SDS011;7521;51.700;6.874;2023-12-28T10:54:44;16.23;;;3.20;;
14858;SDS011;7521;51.700;6.874;2023-12-28T11:01:05;9.13;;;2.30;;
14858;SDS011;7521;51.700;6.874;2023-12-28T11:04:19;15.77;;;2.87;;
14858;SDS011;7521;51.700;6.874;2023-12-28T11:07:26;16.10;;;2.23;;
14858;SDS011;7521;51.700;6.874;2023-12-28T11:10:37;16.57;;;2.70;;
14858;SDS011;7521;51.700;6.874;2023-12-28T11:13:43;15.00;;;2.70;;
14858;SDS011;7521;51.700;6.874;2023-12-28T11:16:49;12.70;;;2.30;;
14858;SDS011;7521;51.700;6.874;2023-12-28T11:19:55;10.47;;;2.57;;
14858;SDS011;7521;51.700;6.874;2023-12-28T11:23:00;10.53;;;2.53;;
14858;SDS011;7521;51.700;6.874;2023-12-28T11:26:15;9.60;;;2.50;;
14858;SDS011;7521;51.700;6.874;2023-12-28T11:29:20;16.33;;;2.63;;
14858;SDS011;7521;51.700;6.874;2023-12-28T11:32:25;14.40;;;2.60;;
14858;SDS011;7521;51.700;6.874;2023-12-28T11:35:49;11.57;;;2.45;;
14858;SDS011;7521;51.700;6.874;2023-12-28T11:38:57;16.10;;;3.00;;
14858;SDS011;7521;51.700;6.874;2023-12-28T11:42:06;15.10;;;2.27;;
14858;SDS011;7521;51.700;6.874;2023-12-28T11:45:11;13.03;;;1.97;;
14858;SDS011;7521;51.700;6.874;2023-12-28T11:48:26;19.00;;;2.55;;
14858;SDS011;7521;51.700;6.874;2023-12-28T11:51:32;9.77;;;2.53;;
14858;SDS011;7521;51.700;6.874;2023-12-28T11:54:37;13.57;;;2.50;;
14858;SDS011;7521;51.700;6.874;2023-12-28T11:57:42;17.13;;;3.10;;
14858;SDS011;7521;51.700;6.874;2023-12-28T12:00:47;9.40;;;2.07;;
14858;SDS011;7521;51.700;6.874;2023-12-28T12:03:53;11.50;;;2.67;;
14858;SDS011;7521;51.700;6.874;2023-12-28T12:07:00;13.40;;;3.00;;
14858;SDS011;7521;51.700;6.874;2023-12-28T12:10:06;19.40;;;2.90;;
14858;SDS011;7521;51.700;6.874;2023-12-28T12:13:11;9.50;;;2.20;;
14858;SDS011;7521;51.700;6.874;2023-12-28T12:16:16;12.23;;;2.43;;
14858;SDS011;7521;51.700;6.874;2023-12-28T12:19:25;12.03;;;2.57;;
14858;SDS011;7521;51.700;6.874;2023-12-28T12:22:32;8.57;;;1.97;;
14858;SDS011;7521;51.700;6.874;2023-12-28T12:25:38;21.77;;;3.08;;
14858;SDS011;7521;51.700;6.874;2023-12-28T12:28:43;10.37;;;2.27;;
14858;SDS011;7521;51.700;6.874;2023-12-28T12:31:48;11.47;;;2.63;;
14858;SDS011;7521;51.700;6.874;2023-12-28T12:34:53;11.00;;;2.40;;
14858;SDS011;7521;51.700;6.874;2023-12-28T12:37:59;8.68;;;1.85;;
14858;SDS011;7521;51.700;6.874;2023-12-28T12:41:04;11.90;;;2.00;;
14858;SDS011;7521;51.700;6.874;2023-12-28T12:44:09;13.13;;;2.58;;
14858;SDS011;7521;51.700;6.874;2023-12-28T12:47:15;12.53;;;2.40;;
14858;SDS011;7521;51.700;6.874;2023-12-28T12:50:20;13.35;;;2.83;;
14858;SDS011;7521;51.700;6.874;2023-12-28T12:53:32;14.50;;;2.87;;
14858;SDS011;7521;51.700;6.874;2023-12-28T12:56:37;10.10;;;2.30;;
14858;SDS011;7521;51.700;6.874;2023-12-28T12:59:44;10.43;;;2.23;;
14858;SDS011;7521;51.700;6.874;2023-12-28T13:02:49;13.30;;;2.07;;
14858;SDS011;7521;51.700;6.874;2023-12-28T13:05:56;8.10;;;2.00;;
14858;SDS011;7521;51.700;6.874;2023-12-28T13:09:01;13.97;;;2.60;;
14858;SDS011;7521;51.700;6.874;2023-12-28T13:12:06;12.60;;;2.95;;
14858;SDS011;7521;51.700;6.874;2023-12-28T13:15:11;11.97;;;2.87;;
14858;SDS011;7521;51.700;6.874;2023-12-28T13:18:17;16.77;;;2.70;;
14858;SDS011;7521;51.700;6.874;2023-12-28T13:21:22;13.67;;;3.23;;
14858;SDS011;7521;51.700;6.874;2023-12-28T13:24:27;13.83;;;2.90;;
14858;SDS011;7521;51.700;6.874;2023-12-28T13:27:33;12.23;;;2.73;;
14858;SDS011;7521;51.700;6.874;2023-12-28T13:30:38;9.37;;;2.07;;
14858;SDS011;7521;51.700;6.874;2023-12-28T13:33:44;14.00;;;3.00;;
14858;SDS011;7521;51.700;6.874;2023-12-28T13:36:49;10.43;;;2.33;;
14858;SDS011;7521;51.700;6.874;2023-12-28T13:39:54;16.80;;;2.93;;
14858;SDS011;7521;51.700;6.874;2023-12-28T13:42:59;16.80;;;2.85;;
14858;SDS011;7521;51.700;6.874;2023-12-28T13:46:04;13.95;;;2.92;;
14858;SDS011;7521;51.700;6.874;2023-12-28T13:49:10;18.20;;;2.97;;
14858;SDS011;7521;51.700;6.874;2023-12-28T13:52:15;11.25;;;2.30;;
14858;SDS011;7521;51.700;6.874;2023-12-28T13:55:20;11.30;;;2.90;;
14858;SDS011;7521;51.700;6.874;2023-12-28T13:58:25;14.77;;;2.53;;
14858;SDS011;7521;51.700;6.874;2023-12-28T14:01:30;10.25;;;2.25;;
14858;SDS011;7521;51.700;6.874;2023-12-28T14:04:35;13.20;;;2.93;;
14858;SDS011;7521;51.700;6.874;2023-12-28T14:07:41;11.65;;;2.33;;
14858;SDS011;7521;51.700;6.874;2023-12-28T14:10:46;14.48;;;2.88;;
14858;SDS011;7521;51.700;6.874;2023-12-28T14:13:51;12.60;;;2.88;;
14858;SDS011;7521;51.700;6.874;2023-12-28T14:16:56;14.30;;;3.83;;
14858;SDS011;7521;51.700;6.874;2023-12-28T14:20:02;13.27;;;2.70;;
14858;SDS011;7521;51.700;6.874;2023-12-28T14:23:08;11.87;;;2.63;;
14858;SDS011;7521;51.700;6.874;2023-12-28T14:26:14;13.80;;;2.07;;
14858;SDS011;7521;51.700;6.874;2023-12-28T14:29:20;11.13;;;2.50;;
14858;SDS011;7521;51.700;6.874;2023-12-28T14:32:25;10.83;;;2.87;;
14858;SDS011;7521;51.700;6.874;2023-12-28T14:35:31;12.27;;;2.20;;
14858;SDS011;7521;51.700;6.874;2023-12-28T14:38:36;15.07;;;2.77;;
14858;SDS011;7521;51.700;6.874;2023-12-28T14:41:42;9.43;;;2.00;;
14858;SDS011;7521;51.700;6.874;2023-12-28T14:44:47;13.35;;;2.85;;
14858;SDS011;7521;51.700;6.874;2023-12-28T14:47:53;7.10;;;1.60;;
14858;SDS011;7521;51.700;6.874;2023-12-28T14:50:58;14.10;;;2.67;;
14858;SDS011;7521;51.700;6.874;2023-12-28T14:54:03;11.00;;;2.00;;
14858;SDS011;7521;51.700;6.874;2023-12-28T14:57:08;10.83;;;2.37;;
14858;SDS011;7521;51.700;6.874;2023-12-28T15:00:14;12.73;;;2.65;;
14858;SDS011;7521;51.700;6.874;2023-12-28T15:03:19;17.23;;;2.73;;
14858;SDS011;7521;51.700;6.874;2023-12-28T15:06:24;12.50;;;2.57;;
14858;SDS011;7521;51.700;6.874;2023-12-28T15:09:29;10.53;;;1.87;;
14858;SDS011;7521;51.700;6.874;2023-12-28T15:12:35;12.83;;;2.10;;
14858;SDS011;7521;51.700;6.874;2023-12-28T15:15:43;14.13;;;2.30;;
14858;SDS011;7521;51.700;6.874;2023-12-28T15:18:49;13.17;;;2.50;;
14858;SDS011;7521;51.700;6.874;2023-12-28T15:21:54;8.37;;;2.27;;
14858;SDS011;7521;51.700;6.874;2023-12-28T15:24:59;10.20;;;2.67;;
14858;SDS011;7521;51.700;6.874;2023-12-28T15:28:05;11.77;;;2.27;;
14858;SDS011;7521;51.700;6.874;2023-12-28T15:31:10;12.85;;;2.42;;
14858;SDS011;7521;51.700;6.874;2023-12-28T15:34:15;8.55;;;2.40;;
14858;SDS011;7521;51.700;6.874;2023-12-28T15:37:21;10.50;;;2.13;;
14858;SDS011;7521;51.700;6.874;2023-12-28T15:40:26;13.43;;;2.83;;
14858;SDS011;7521;51.700;6.874;2023-12-28T15:43:31;9.87;;;2.23;;
14858;SDS011;7521;51.700;6.874;2023-12-28T15:46:36;14.70;;;2.23;;
14858;SDS011;7521;51.700;6.874;2023-12-28T15:49:41;9.87;;;2.00;;
14858;SDS011;7521;51.700;6.874;2023-12-28T15:52:47;14.60;;;2.45;;
14858;SDS011;7521;51.700;6.874;2023-12-28T15:55:52;13.35;;;2.15;;
14858;SDS011;7521;51.700;6.874;2023-12-28T15:58:57;14.55;;;2.70;;
14858;SDS011;7521;51.700;6.874;2023-12-28T16:02:02;8.98;;;1.88;;
14858;SDS011;7521;51.700;6.874;2023-12-28T16:05:07;9.82;;;2.15;;
14858;SDS011;7521;51.700;6.874;2023-12-28T16:08:12;9.60;;;2.20;;
14858;SDS011;7521;51.700;6.874;2023-12-28T16:11:20;8.15;;;1.90;;
14858;SDS011;7521;51.700;6.874;2023-12-28T16:14:25;11.47;;;2.87;;
14858;SDS011;7521;51.700;6.874;2023-12-28T16:17:31;14.03;;;2.73;;
14858;SDS011;7521;51.700;6.874;2023-12-28T16:20:36;8.17;;;2.00;;
14858;SDS011;7521;51.700;6.874;2023-12-28T16:23:42;12.40;;;2.67;;
14858;SDS011;7521;51.700;6.874;2023-12-28T16:26:47;13.30;;;2.60;;
14858;SDS011;7521;51.700;6.874;2023-12-28T16:29:52;8.93;;;1.90;;
14858;SDS011;7521;51.700;6.874;2023-12-28T16:32:57;9.83;;;2.00;;
14858;SDS011;7521;51.700;6.874;2023-12-28T16:36:03;10.40;;;1.92;;
14858;SDS011;7521;51.700;6.874;2023-12-28T16:39:08;11.87;;;2.10;;
14858;SDS011;7521;51.700;6.874;2023-12-28T16:42:13;15.40;;;2.90;;
14858;SDS011;7521;51.700;6.874;2023-12-28T16:45:18;11.48;;;2.00;;
14858;SDS011;7521;51.700;6.874;2023-12-28T16:48:24;10.25;;;2.47;;
14858;SDS011;7521;51.700;6.874;2023-12-28T16:51:29;9.93;;;2.27;;
14858;SDS011;7521;51.700;6.874;2023-12-28T16:54:34;10.60;;;1.90;;
14858;SDS011;7521;51.700;6.874;2023-12-28T16:57:39;11.77;;;2.50;;
14858;SDS011;7521;51.700;6.874;2023-12-28T17:00:45;11.20;;;2.50;;
14858;SDS011;7521;51.700;6.874;2023-12-28T17:03:50;8.57;;;1.88;;
14858;SDS011;7521;51.700;6.874;2023-12-28T17:06:55;9.20;;;1.73;;
14858;SDS011;7521;51.700;6.874;2023-12-28T17:10:01;14.50;;;2.30;;
14858;SDS011;7521;51.700;6.874;2023-12-28T17:13:11;10.47;;;2.33;;
14858;SDS011;7521;51.700;6.874;2023-12-28T17:16:16;13.67;;;2.80;;
14858;SDS011;7521;51.700;6.874;2023-12-28T17:19:23;11.87;;;2.10;;
14858;SDS011;7521;51.700;6.874;2023-12-28T17:22:31;12.17;;;2.13;;
14858;SDS011;7521;51.700;6.874;2023-12-28T17:32:06;9.37;;;2.20;;
14858;SDS011;7521;51.700;6.874;2023-12-28T17:35:12;14.50;;;2.33;;
14858;SDS011;7521;51.700;6.874;2023-12-28T17:38:20;11.87;;;2.10;;
14858;SDS011;7521;51.700;6.874;2023-12-28T17:41:25;10.67;;;2.27;;
14858;SDS011;7521;51.700;6.874;2023-12-28T17:44:35;5.33;;;1.73;;
14858;SDS011;7521;51.700;6.874;2023-12-28T17:47:52;9.83;;;1.87;;
14858;SDS011;7521;51.700;6.874;2023-12-28T17:51:01;5.13;;;1.90;;
14858;SDS011;7521;51.700;6.874;2023-12-28T17:54:06;12.17;;;2.30;;
14858;SDS011;7521;51.700;6.874;2023-12-28T17:57:12;17.10;;;2.23;;
14858;SDS011;7521;51.700;6.874;2023-12-28T18:00:17;9.90;;;2.05;;
14858;SDS011;7521;51.700;6.874;2023-12-28T18:03:22;9.17;;;1.77;;
14858;SDS011;7521;51.700;6.874;2023-12-28T18:06:32;8.30;;;1.83;;
14858;SDS011;7521;51.700;6.874;2023-12-28T18:09:37;8.10;;;1.80;;
14858;SDS011;7521;51.700;6.874;2023-12-28T18:12:45;10.17;;;1.67;;
14858;SDS011;7521;51.700;6.874;2023-12-28T18:15:50;10.05;;;1.98;;
14858;SDS011;7521;51.700;6.874;2023-12-28T18:18:55;5.50;;;1.75;;
14858;SDS011;7521;51.700;6.874;2023-12-28T18:22:04;7.17;;;2.10;;
14858;SDS011;7521;51.700;6.874;2023-12-28T18:25:09;7.00;;;1.58;;
14858;SDS011;7521;51.700;6.874;2023-12-28T18:28:14;12.20;;;2.00;;
14858;SDS011;7521;51.700;6.874;2023-12-28T18:31:19;8.90;;;1.90;;
14858;SDS011;7521;51.700;6.874;2023-12-28T18:34:24;8.13;;;1.73;;
14858;SDS011;7521;51.700;6.874;2023-12-28T18:37:30;9.23;;;1.70;;
14858;SDS011;7521;51.700;6.874;2023-12-28T18:40:35;7.40;;;1.83;;
14858;SDS011;7521;51.700;6.874;2023-12-28T18:43:40;9.77;;;1.70;;
14858;SDS011;7521;51.700;6.874;2023-12-28T18:46:45;6.95;;;2.00;;
14858;SDS011;7521;51.700;6.874;2023-12-28T18:49:51;9.57;;;1.40;;
14858;SDS011;7521;51.700;6.874;2023-12-28T18:52:56;5.80;;;1.63;;
14858;SDS011;7521;51.700;6.874;2023-12-28T18:56:01;4.88;;;1.38;;
14858;SDS011;7521;51.700;6.874;2023-12-28T18:59:06;8.23;;;2.00;;
14858;SDS011;7521;51.700;6.874;2023-12-28T19:02:11;9.27;;;1.80;;
14858;SDS011;7521;51.700;6.874;2023-12-28T19:05:17;10.25;;;1.95;;